Time;durP1;ratioP1;P1;durP2;ratioP2;P2;SDS_P1;SDS_P2;PMS_P1;PMS_P2;Temp;Humidity;BMP_temperature;BMP_pressure;BME280_temperature;BME280_humidity;BME280_pressure;Samples;Min_cycle;Max_cycle;Signal;HPM_P1;HPM_P2
2023/01/06 00:00:07;;;;;;;;;;;9.50;99.90;;;;;;4841590;29;19964;-87
2023/01/06 00:05:59;;;;;;;;;;;9.50;99.90;;;;;;4867497;29;19925;-87
2023/01/06 00:08:25;;;;;;;;;;;10.10;99.90;;;;;;4965912;28;20262;-88
2023/01/06 00:10:51;;;;;;;;;;;11.10;99.90;;;;;;4969843;28;19917;-87
2023/01/06 00:13:16;;;;;;;;;;;10.20;99.90;;;;;;4979195;28;20373;-87
2023/01/06 00:15:42;;;;;;;;;;;10.20;99.90;;;;;;4960545;28;19933;-87
2023/01/06 00:18:08;;;;;;;;;;;11.10;99.90;;;;;;4953900;28;19926;-88
2023/01/06 00:20:33;;;;;;;;;;;10.20;99.90;;;;;;4976933;28;19929;-87
2023/01/06 00:22:59;;;;;;;;;;;10.20;99.90;;;;;;4959866;28;20474;-87
2023/01/06 00:25:24;;;;;;;;;;;10.20;99.90;;;;;;4977377;28;19925;-87
2023/01/06 00:27:50;;;;;;;;;;;10.20;99.90;;;;;;4962300;28;19932;-88
2023/01/06 00:30:15;;;;;;;;;;;10.20;99.90;;;;;;4985915;28;20297;-87
2023/01/06 00:32:41;;;;;;;;;;;10.20;99.90;;;;;;4960446;28;19926;-87
2023/01/06 00:35:07;;;;;;;;;;;10.20;99.90;;;;;;4948614;28;20379;-87
2023/01/06 00:37:32;;;;;;;;;;;10.20;99.90;;;;;;4984771;28;19929;-88
2023/01/06 00:39:58;;;;;;;;;;;10.20;99.90;;;;;;4959456;28;20333;-87
2023/01/06 00:42:23;;;;;;;;;;;10.90;99.90;;;;;;4961109;28;19929;-87
2023/01/06 00:44:49;;;;;;;;;;;10.20;99.90;;;;;;4962728;28;19956;-86
2023/01/06 00:47:16;;;;;;;;;;;10.20;99.90;;;;;;4969481;28;20265;-88
2023/01/06 00:49:41;;;;;;;;;;;10.20;99.90;;;;;;4982937;28;19921;-87
2023/01/06 00:52:07;;;;;;;;;;;10.20;99.90;;;;;;4966020;28;19944;-87
2023/01/06 00:54:32;;;;;;;;;;;10.20;99.90;;;;;;4943935;28;19925;-87
2023/01/06 00:56:58;;;;;;;;;;;11.20;99.90;;;;;;4987291;28;19929;-87
2023/01/06 00:59:25;;;;;;;;;;;10.30;99.90;;;;;;4963609;28;19918;-88
2023/01/06 01:01:52;;;;;;;;;;;10.30;99.90;;;;;;4952544;28;19989;-88
2023/01/06 01:04:17;;;;;;;;;;;11.40;99.90;;;;;;4959726;28;19922;-87
2023/01/06 01:06:46;;;;;;;;;;;11.20;99.90;;;;;;4974340;28;19925;-88
2023/01/06 01:09:13;;;;;;;;;;;10.30;99.90;;;;;;4960495;28;20505;-87
2023/01/06 01:14:23;;;;;;;;;;;10.30;99.90;;;;;;4968422;28;19922;-87
2023/01/06 01:16:49;;;;;;;;;;;10.30;99.90;;;;;;4964318;28;20333;-87
2023/01/06 01:19:15;;;;;;;;;;;10.30;99.90;;;;;;4960523;28;19946;-87
2023/01/06 01:21:41;;;;;;;;;;;10.30;99.90;;;;;;4959524;28;19977;-87
2023/01/06 01:24:06;;;;;;;;;;;10.30;99.90;;;;;;4948054;28;19917;-87
2023/01/06 01:26:32;;;;;;;;;;;10.30;99.90;;;;;;4959052;28;20320;-87
2023/01/06 01:28:58;;;;;;;;;;;10.30;99.90;;;;;;4981526;28;19986;-87
2023/01/06 01:31:23;;;;;;;;;;;10.30;99.90;;;;;;4966149;28;19922;-87
2023/01/06 01:33:49;;;;;;;;;;;10.30;99.90;;;;;;4975193;28;19929;-88
2023/01/06 01:36:15;;;;;;;;;;;10.30;99.90;;;;;;4959645;28;19917;-87
2023/01/06 01:38:41;;;;;;;;;;;10.20;99.90;;;;;;4979432;28;19925;-87
2023/01/06 01:41:08;;;;;;;;;;;10.40;99.90;;;;;;4965671;28;19921;-87
2023/01/06 01:43:44;;;;;;;;;;;10.30;99.90;;;;;;4967306;28;19925;-88
2023/01/06 01:46:10;;;;;;;;;;;10.20;99.90;;;;;;4959983;28;19925;-87
2023/01/06 01:48:36;;;;;;;;;;;10.30;99.90;;;;;;4963036;28;20101;-87
2023/01/06 01:51:03;;;;;;;;;;;10.20;99.90;;;;;;4961933;28;19980;-87
2023/01/06 01:53:35;;;;;;;;;;;10.30;99.90;;;;;;4957768;28;19941;-87
2023/01/06 01:56:03;;;;;;;;;;;10.30;99.90;;;;;;4959652;28;19918;-88
2023/01/06 01:58:41;;;;;;;;;;;10.20;99.90;;;;;;4962141;28;20003;-88
2023/01/06 02:01:10;;;;;;;;;;;10.10;99.90;;;;;;4974983;28;19922;-87
2023/01/06 02:03:36;;;;;;;;;;;10.20;99.90;;;;;;4967430;28;19922;-87
2023/01/06 02:06:02;;;;;;;;;;;10.20;99.90;;;;;;4958511;28;20489;-87
2023/01/06 02:08:41;;;;;;;;;;;10.80;99.90;;;;;;4958277;28;19922;-87
2023/01/06 02:11:07;;;;;;;;;;;10.30;99.90;;;;;;4963222;28;19926;-87
2023/01/06 02:13:34;;;;;;;;;;;10.40;99.90;;;;;;4943296;28;20892;-88
2023/01/06 02:16:19;;;;;;;;;;;10.30;99.90;;;;;;4964587;28;19918;-87
2023/01/06 02:18:52;;;;;;;;;;;10.30;99.90;;;;;;4964057;28;19922;-87
2023/01/06 02:21:20;;;;;;;;;;;10.30;99.90;;;;;;4973453;28;19987;-87
2023/01/06 02:24:08;;;;;;;;;;;10.20;99.90;;;;;;4962892;28;20400;-88
2023/01/06 02:26:33;;;;;;;;;;;10.20;99.90;;;;;;4976514;28;20321;-87
2023/01/06 02:29:24;;;;;;;;;;;10.20;99.90;;;;;;4976909;28;19918;-86
2023/01/06 02:31:59;;;;;;;;;;;10.20;99.90;;;;;;4958606;28;19930;-87
2023/01/06 02:34:48;;;;;;;;;;;10.20;99.90;;;;;;4957949;28;20010;-86
2023/01/06 02:37:26;;;;;;;;;;;10.20;99.90;;;;;;4959891;28;19918;-87
2023/01/06 02:40:10;;;;;;;;;;;10.20;99.90;;;;;;4984167;28;20443;-88
2023/01/06 02:42:54;;;;;;;;;;;10.20;99.90;;;;;;4961367;28;20013;-87
2023/01/06 02:45:24;;;;;;;;;;;10.20;99.90;;;;;;4962266;28;19918;-87
2023/01/06 02:47:50;;;;;;;;;;;10.20;99.90;;;;;;4980687;28;20012;-88
2023/01/06 02:50:23;;;;;;;;;;;10.20;99.90;;;;;;4957279;28;19957;-87
2023/01/06 02:52:59;;;;;;;;;;;10.30;99.90;;;;;;4981650;28;19921;-87
2023/01/06 02:55:31;;;;;;;;;;;10.20;99.90;;;;;;4958899;28;19929;-87
2023/01/06 02:58:02;;;;;;;;;;;10.20;99.90;;;;;;4974929;28;19918;-87
2023/01/06 03:00:32;;;;;;;;;;;10.20;99.90;;;;;;4964219;28;19929;-87
2023/01/06 03:02:59;;;;;;;;;;;10.30;99.90;;;;;;4941527;28;20281;-87
2023/01/06 03:05:26;;;;;;;;;;;10.30;99.90;;;;;;4969187;28;19918;-88
2023/01/06 03:07:52;;;;;;;;;;;10.00;99.90;;;;;;4983910;28;20079;-87
2023/01/06 03:10:20;;;;;;;;;;;10.40;99.90;;;;;;4984098;28;19926;-87
2023/01/06 03:12:53;;;;;;;;;;;10.90;99.90;;;;;;4965788;28;20024;-87
2023/01/06 03:15:19;;;;;;;;;;;10.20;99.90;;;;;;4973169;28;19926;-87
2023/01/06 03:17:47;;;;;;;;;;;10.20;99.90;;;;;;4956569;28;20008;-87
2023/01/06 03:20:13;;;;;;;;;;;10.50;99.90;;;;;;4981488;28;19930;-87
2023/01/06 03:22:39;;;;;;;;;;;11.30;99.90;;;;;;4963384;28;19922;-87
2023/01/06 03:25:06;;;;;;;;;;;10.20;99.90;;;;;;4966826;28;19922;-86
2023/01/06 03:27:31;;;;;;;;;;;10.20;99.90;;;;;;4958964;28;19918;-87
2023/01/06 03:29:57;;;;;;;;;;;10.20;99.90;;;;;;4956502;28;19985;-87
2023/01/06 03:32:45;;;;;;;;;;;10.20;99.90;;;;;;4956858;28;19926;-86
2023/01/06 03:35:24;;;;;;;;;;;10.20;99.90;;;;;;4956656;28;19926;-87
2023/01/06 03:37:52;;;;;;;;;;;10.20;99.90;;;;;;4979720;28;19918;-87
2023/01/06 03:40:36;;;;;;;;;;;10.20;99.90;;;;;;4960540;28;19922;-87
2023/01/06 03:43:11;;;;;;;;;;;10.20;99.90;;;;;;4959220;28;20684;-87
2023/01/06 03:45:55;;;;;;;;;;;11.10;99.90;;;;;;4964304;28;20016;-88
2023/01/06 03:48:24;;;;;;;;;;;10.20;99.90;;;;;;4967052;28;20373;-87
2023/01/06 03:50:51;;;;;;;;;;;10.20;99.90;;;;;;4984326;28;20081;-87
2023/01/06 03:53:32;;;;;;;;;;;10.20;99.90;;;;;;4980191;28;19965;-87
2023/01/06 03:56:08;;;;;;;;;;;10.20;99.90;;;;;;4960749;28;19926;-87
2023/01/06 03:58:35;;;;;;;;;;;10.10;99.90;;;;;;4960179;28;20364;-87
2023/01/06 04:01:00;;;;;;;;;;;10.40;99.90;;;;;;4956182;28;19937;-87
2023/01/06 04:03:26;;;;;;;;;;;10.10;99.90;;;;;;4978015;28;19964;-87
2023/01/06 04:05:52;;;;;;;;;;;10.20;99.90;;;;;;4960268;28;19976;-87
2023/01/06 04:08:17;;;;;;;;;;;10.30;99.90;;;;;;4960710;28;19921;-87
2023/01/06 04:10:43;;;;;;;;;;;10.30;99.90;;;;;;4961767;28;19918;-88
2023/01/06 04:13:08;;;;;;;;;;;10.20;99.90;;;;;;4965866;28;19929;-87
2023/01/06 04:15:34;;;;;;;;;;;10.30;99.90;;;;;;4977170;28;19957;-87
2023/01/06 04:18:00;;;;;;;;;;;10.30;99.90;;;;;;4960127;28;19922;-87
2023/01/06 04:20:27;;;;;;;;;;;10.20;99.90;;;;;;4961039;28;19958;-87
2023/01/06 04:22:53;;;;;;;;;;;10.20;99.90;;;;;;4959795;28;19930;-87
2023/01/06 04:25:19;;;;;;;;;;;10.20;99.90;;;;;;4984849;28;19924;-87
2023/01/06 04:27:44;;;;;;;;;;;10.10;99.90;;;;;;4959999;28;20009;-87
2023/01/06 04:30:10;;;;;;;;;;;10.20;99.90;;;;;;4965446;28;19928;-87
2023/01/06 04:32:36;;;;;;;;;;;10.20;99.90;;;;;;4960069;28;19972;-87
2023/01/06 04:35:02;;;;;;;;;;;10.20;99.90;;;;;;4958617;28;20368;-87
2023/01/06 04:37:27;;;;;;;;;;;10.20;99.90;;;;;;4976664;28;19977;-86
2023/01/06 04:39:53;;;;;;;;;;;10.20;99.90;;;;;;4973747;28;19960;-87
2023/01/06 04:42:18;;;;;;;;;;;10.90;99.90;;;;;;4982140;28;20398;-87
2023/01/06 04:44:44;;;;;;;;;;;10.20;99.90;;;;;;4978331;28;19917;-87
2023/01/06 04:47:10;;;;;;;;;;;10.20;99.90;;;;;;4970513;28;19932;-86
2023/01/06 04:49:35;;;;;;;;;;;10.20;99.90;;;;;;4971658;28;19985;-88
2023/01/06 04:52:01;;;;;;;;;;;10.20;99.90;;;;;;4962846;28;19918;-87
2023/01/06 04:54:26;;;;;;;;;;;10.20;99.90;;;;;;4960737;28;20019;-86
2023/01/06 04:56:52;;;;;;;;;;;10.20;99.90;;;;;;4978764;28;19937;-87
2023/01/06 04:59:18;;;;;;;;;;;10.30;99.90;;;;;;4962600;28;19922;-87
2023/01/06 05:01:43;;;;;;;;;;;10.30;99.90;;;;;;4960007;28;20365;-87
2023/01/06 05:04:12;;;;;;;;;;;10.30;99.90;;;;;;4960286;28;19928;-87
2023/01/06 05:06:38;;;;;;;;;;;10.60;99.90;;;;;;4976781;28;19921;-87
2023/01/06 05:09:04;;;;;;;;;;;10.30;99.90;;;;;;4972276;28;19984;-87
2023/01/06 05:11:30;;;;;;;;;;;10.30;99.90;;;;;;4980632;28;19973;-86
2023/01/06 05:13:56;;;;;;;;;;;10.20;99.90;;;;;;4974545;28;19922;-87
2023/01/06 05:16:29;;;;;;;;;;;10.30;99.90;;;;;;4979366;28;19921;-86
2023/01/06 05:18:54;;;;;;;;;;;10.20;99.90;;;;;;4961334;28;19993;-87
2023/01/06 05:21:20;;;;;;;;;;;10.30;99.90;;;;;;4986124;28;19961;-88
2023/01/06 05:23:46;;;;;;;;;;;10.30;99.90;;;;;;4979179;28;20190;-86
2023/01/06 05:26:15;;;;;;;;;;;9.30;99.90;;;;;;4957345;28;19937;-86
2023/01/06 05:28:40;;;;;;;;;;;10.30;99.90;;;;;;4980124;28;19922;-86
2023/01/06 05:31:08;;;;;;;;;;;10.30;99.90;;;;;;4945057;28;19926;-86
2023/01/06 05:33:34;;;;;;;;;;;10.50;99.90;;;;;;4980309;28;19976;-86
2023/01/06 05:36:00;;;;;;;;;;;10.30;99.90;;;;;;4942226;28;19918;-85
2023/01/06 05:38:26;;;;;;;;;;;10.30;99.90;;;;;;4974087;28;19918;-86
2023/01/06 05:40:52;;;;;;;;;;;10.30;99.90;;;;;;4979384;28;20456;-86
2023/01/06 05:43:18;;;;;;;;;;;10.30;99.90;;;;;;4956805;28;19922;-85
2023/01/06 05:45:44;;;;;;;;;;;10.30;99.90;;;;;;4952314;28;19969;-85
2023/01/06 05:48:09;;;;;;;;;;;10.30;99.90;;;;;;4977111;28;19917;-86
2023/01/06 05:50:35;;;;;;;;;;;10.30;99.90;;;;;;4941689;28;19968;-86
2023/01/06 05:53:00;;;;;;;;;;;10.70;99.90;;;;;;4964409;28;19959;-86
2023/01/06 05:55:26;;;;;;;;;;;10.30;99.90;;;;;;4961875;28;19925;-86
2023/01/06 05:57:51;;;;;;;;;;;10.30;99.90;;;;;;4982179;28;20476;-86
2023/01/06 06:00:17;;;;;;;;;;;10.30;99.90;;;;;;4964829;28;20285;-86
2023/01/06 06:02:43;;;;;;;;;;;10.30;99.90;;;;;;4973999;28;19922;-86
2023/01/06 06:05:09;;;;;;;;;;;10.30;99.90;;;;;;4956426;28;19992;-86
2023/01/06 06:07:35;;;;;;;;;;;10.10;99.90;;;;;;4979803;28;19964;-85
2023/01/06 06:10:00;;;;;;;;;;;10.20;99.90;;;;;;4943465;28;20389;-87
2023/01/06 06:12:26;;;;;;;;;;;10.30;99.90;;;;;;4966393;28;20352;-86
2023/01/06 06:14:52;;;;;;;;;;;10.10;99.90;;;;;;4962619;28;19936;-86
2023/01/06 06:17:17;;;;;;;;;;;10.20;99.90;;;;;;4957570;28;19981;-86
2023/01/06 06:19:43;;;;;;;;;;;10.10;99.90;;;;;;4969730;28;19925;-86
2023/01/06 06:22:08;;;;;;;;;;;10.10;99.90;;;;;;4979305;28;19923;-86
2023/01/06 06:24:34;;;;;;;;;;;10.10;99.90;;;;;;4962871;28;19918;-85
2023/01/06 06:26:59;;;;;;;;;;;10.10;99.90;;;;;;4974208;28;19969;-86
2023/01/06 06:29:25;;;;;;;;;;;10.10;99.90;;;;;;4943266;28;19924;-86
2023/01/06 06:31:50;;;;;;;;;;;9.50;99.90;;;;;;4966844;28;20091;-86
2023/01/06 06:34:16;;;;;;;;;;;10.10;99.90;;;;;;4974803;28;19929;-85
2023/01/06 06:36:42;;;;;;;;;;;10.00;99.90;;;;;;4976109;28;19921;-87
2023/01/06 06:39:07;;;;;;;;;;;10.00;99.90;;;;;;4959754;28;20358;-86
2023/01/06 06:41:33;;;;;;;;;;;10.00;99.90;;;;;;4959164;28;20005;-86
2023/01/06 06:43:58;;;;;;;;;;;10.00;99.90;;;;;;4982493;28;19918;-86
2023/01/06 06:46:24;;;;;;;;;;;10.00;99.90;;;;;;4957220;28;19926;-86
2023/01/06 06:48:49;;;;;;;;;;;10.00;99.90;;;;;;4957247;28;19937;-88
2023/01/06 06:51:16;;;;;;;;;;;10.10;99.90;;;;;;4970146;28;20025;-86
2023/01/06 06:53:42;;;;;;;;;;;10.00;99.90;;;;;;4955382;28;20008;-86
2023/01/06 06:56:08;;;;;;;;;;;9.90;99.90;;;;;;4974404;28;20061;-86
2023/01/06 06:58:34;;;;;;;;;;;9.90;99.90;;;;;;4956834;28;19922;-87
2023/01/06 07:01:03;;;;;;;;;;;10.20;99.90;;;;;;4964066;28;19918;-87
2023/01/06 07:03:29;;;;;;;;;;;9.90;99.90;;;;;;4943872;28;19953;-88
2023/01/06 07:05:55;;;;;;;;;;;9.90;99.90;;;;;;4969836;28;19923;-87
2023/01/06 07:08:20;;;;;;;;;;;9.90;99.90;;;;;;4982215;28;20230;-87
2023/01/06 07:10:46;;;;;;;;;;;9.90;99.90;;;;;;4959313;28;19918;-87
2023/01/06 07:13:11;;;;;;;;;;;9.90;99.90;;;;;;4961374;28;19926;-87
2023/01/06 07:15:37;;;;;;;;;;;9.90;99.90;;;;;;4959585;28;19918;-88
2023/01/06 07:18:03;;;;;;;;;;;9.90;99.90;;;;;;4964886;28;20000;-87
2023/01/06 07:20:29;;;;;;;;;;;9.90;99.90;;;;;;4983913;28;19918;-87
2023/01/06 07:22:55;;;;;;;;;;;9.10;99.90;;;;;;4978815;28;19922;-87
2023/01/06 07:25:20;;;;;;;;;;;9.80;99.90;;;;;;4980025;28;20001;-87
2023/01/06 07:27:46;;;;;;;;;;;9.80;99.90;;;;;;4969614;28;20565;-89
2023/01/06 07:30:13;;;;;;;;;;;9.80;99.90;;;;;;4965264;28;19988;-88
2023/01/06 07:32:38;;;;;;;;;;;9.80;99.90;;;;;;4981490;28;20346;-89
2023/01/06 07:35:04;;;;;;;;;;;9.80;99.90;;;;;;4966954;28;19918;-88
2023/01/06 07:37:29;;;;;;;;;;;9.80;99.90;;;;;;4962384;28;19955;-88
2023/01/06 07:39:55;;;;;;;;;;;10.10;99.90;;;;;;4967153;28;20304;-88
2023/01/06 07:42:21;;;;;;;;;;;9.80;99.90;;;;;;4983307;28;19922;-88
2023/01/06 07:44:46;;;;;;;;;;;10.10;99.90;;;;;;4986345;28;19977;-87
2023/01/06 07:47:12;;;;;;;;;;;9.80;99.90;;;;;;4951149;28;19980;-87
2023/01/06 07:49:38;;;;;;;;;;;10.40;99.90;;;;;;4962158;28;20005;-85
2023/01/06 07:52:03;;;;;;;;;;;9.80;99.90;;;;;;4976495;28;19922;-85
2023/01/06 07:54:29;;;;;;;;;;;9.80;99.90;;;;;;4966494;28;19922;-86
2023/01/06 07:56:54;;;;;;;;;;;9.80;99.90;;;;;;4963935;28;19968;-84
2023/01/06 07:59:20;;;;;;;;;;;9.80;99.90;;;;;;4942304;28;19979;-85
2023/01/06 08:01:45;;;;;;;;;;;9.90;99.90;;;;;;4964211;28;19952;-84
2023/01/06 08:04:11;;;;;;;;;;;9.90;99.90;;;;;;4979937;28;20291;-84
2023/01/06 08:06:40;;;;;;;;;;;9.90;99.90;;;;;;4969113;28;19930;-86
2023/01/06 08:09:05;;;;;;;;;;;9.90;99.90;;;;;;4947944;28;20395;-85
2023/01/06 08:11:31;;;;;;;;;;;10.00;99.90;;;;;;4960700;28;19926;-84
2023/01/06 08:13:56;;;;;;;;;;;9.80;99.90;;;;;;4950827;28;19925;-85
2023/01/06 08:16:22;;;;;;;;;;;10.60;99.90;;;;;;4972790;28;19929;-85
2023/01/06 08:18:47;;;;;;;;;;;9.60;99.90;;;;;;4977717;28;19921;-85
2023/01/06 08:21:13;;;;;;;;;;;9.60;99.90;;;;;;4959309;28;19929;-85
2023/01/06 08:23:38;;;;;;;;;;;9.50;99.90;;;;;;4961809;28;19945;-85
2023/01/06 08:26:05;;;;;;;;;;;9.40;99.90;;;;;;4975914;28;19918;-85
2023/01/06 08:28:31;;;;;;;;;;;9.30;99.90;;;;;;4967359;28;19917;-85
2023/01/06 08:30:56;;;;;;;;;;;9.70;99.90;;;;;;4959762;28;19933;-85
2023/01/06 08:33:25;;;;;;;;;;;9.20;99.90;;;;;;4968598;28;20021;-85
2023/01/06 08:36:00;;;;;;;;;;;9.10;99.90;;;;;;4981264;28;20437;-83
2023/01/06 08:38:26;;;;;;;;;;;9.00;99.90;;;;;;4960169;28;19924;-85
2023/01/06 08:40:52;;;;;;;;;;;9.00;99.90;;;;;;4973039;28;20009;-85
2023/01/06 08:43:18;;;;;;;;;;;8.90;99.90;;;;;;4960710;28;19961;-85
2023/01/06 08:45:43;;;;;;;;;;;8.90;99.90;;;;;;4975164;28;20306;-86
2023/01/06 08:48:09;;;;;;;;;;;8.90;99.90;;;;;;4971308;28;19945;-86
2023/01/06 08:50:36;;;;;;;;;;;9.00;99.90;;;;;;4960561;28;20380;-85
2023/01/06 08:53:02;;;;;;;;;;;8.80;99.90;;;;;;4957975;28;19977;-85
2023/01/06 08:55:27;;;;;;;;;;;8.80;99.90;;;;;;4979865;28;20326;-86
2023/01/06 08:57:53;;;;;;;;;;;8.70;99.90;;;;;;4973519;28;20631;-85
2023/01/06 09:00:18;;;;;;;;;;;8.70;99.90;;;;;;4956262;28;19973;-86
2023/01/06 09:02:44;;;;;;;;;;;8.60;99.90;;;;;;4977465;28;19925;-86
2023/01/06 09:05:09;;;;;;;;;;;8.60;99.90;;;;;;4972474;28;19938;-86
2023/01/06 09:07:35;;;;;;;;;;;9.20;99.90;;;;;;4957149;28;20304;-87
2023/01/06 09:10:00;;;;;;;;;;;8.50;99.90;;;;;;4959416;28;19925;-86
2023/01/06 09:12:26;;;;;;;;;;;8.50;99.90;;;;;;4981157;28;19929;-86
2023/01/06 09:14:51;;;;;;;;;;;8.50;99.90;;;;;;4956309;28;19933;-86
2023/01/06 09:17:17;;;;;;;;;;;8.50;99.90;;;;;;4973028;28;20028;-86
2023/01/06 09:19:42;;;;;;;;;;;8.40;99.90;;;;;;4958598;28;21710;-86
2023/01/06 09:22:08;;;;;;;;;;;8.50;99.90;;;;;;4955126;28;19926;-84
2023/01/06 09:24:33;;;;;;;;;;;9.00;99.90;;;;;;4973239;28;20407;-86
2023/01/06 09:26:59;;;;;;;;;;;8.50;99.90;;;;;;4968087;28;19921;-86
2023/01/06 09:29:25;;;;;;;;;;;8.40;99.90;;;;;;4975959;28;19960;-86
2023/01/06 09:31:50;;;;;;;;;;;8.90;99.90;;;;;;4942370;28;19956;-86
2023/01/06 09:34:16;;;;;;;;;;;8.40;99.90;;;;;;4957001;28;20462;-87
2023/01/06 09:36:41;;;;;;;;;;;8.50;99.90;;;;;;4972636;28;19930;-86
2023/01/06 09:39:07;;;;;;;;;;;8.50;99.90;;;;;;4979586;28;19922;-86
2023/01/06 09:41:32;;;;;;;;;;;8.50;99.90;;;;;;4978562;28;20475;-86
2023/01/06 09:44:10;;;;;;;;;;;8.40;99.90;;;;;;4958259;28;20377;-86
2023/01/06 09:46:37;;;;;;;;;;;8.40;99.90;;;;;;4976228;28;19957;-86
2023/01/06 09:49:23;;;;;;;;;;;8.70;99.90;;;;;;4972986;28;19930;-86
2023/01/06 09:51:49;;;;;;;;;;;8.40;99.90;;;;;;4968545;28;19928;-87
2023/01/06 09:54:16;;;;;;;;;;;8.40;99.90;;;;;;4961239;28;19925;-86
2023/01/06 09:56:44;;;;;;;;;;;8.50;99.90;;;;;;4980572;28;20658;-86
2023/01/06 09:59:29;;;;;;;;;;;8.50;99.90;;;;;;4971694;28;19961;-86
2023/01/06 10:01:58;;;;;;;;;;;8.50;99.90;;;;;;4954301;28;19918;-86
2023/01/06 10:04:25;;;;;;;;;;;9.40;99.90;;;;;;4961500;28;19922;-84
2023/01/06 10:06:54;;;;;;;;;;;8.60;99.90;;;;;;4958746;28;20384;-84
2023/01/06 10:09:32;;;;;;;;;;;8.60;99.90;;;;;;4964365;28;19929;-84
2023/01/06 10:12:07;;;;;;;;;;;8.60;99.90;;;;;;4958730;28;20003;-84
2023/01/06 10:14:43;;;;;;;;;;;8.60;99.90;;;;;;4971280;28;20373;-84
2023/01/06 10:17:14;;;;;;;;;;;8.70;99.90;;;;;;4972203;28;19922;-84
2023/01/06 10:20:00;;;;;;;;;;;8.70;99.90;;;;;;4977572;28;20000;-84
2023/01/06 10:22:45;;;;;;;;;;;8.70;99.90;;;;;;4973509;28;19922;-84
2023/01/06 10:25:16;;;;;;;;;;;8.80;99.90;;;;;;4975465;28;19918;-84
2023/01/06 10:27:45;;;;;;;;;;;8.90;99.90;;;;;;4970463;28;20017;-84
2023/01/06 10:30:28;;;;;;;;;;;8.80;99.90;;;;;;4974051;28;19989;-84
2023/01/06 10:32:53;;;;;;;;;;;8.80;99.90;;;;;;4960409;28;19956;-85
2023/01/06 10:35:21;;;;;;;;;;;9.40;99.90;;;;;;4979055;28;19981;-84
2023/01/06 10:37:48;;;;;;;;;;;9.10;99.90;;;;;;4953963;28;19929;-85
2023/01/06 10:40:16;;;;;;;;;;;8.90;99.90;;;;;;4958533;28;19926;-84
2023/01/06 10:42:54;;;;;;;;;;;9.00;99.90;;;;;;4954902;28;19997;-85
2023/01/06 10:45:20;;;;;;;;;;;9.00;99.90;;;;;;4976323;28;20012;-85
2023/01/06 10:47:46;;;;;;;;;;;9.00;99.90;;;;;;4956018;28;20353;-85
2023/01/06 10:50:12;;;;;;;;;;;9.00;99.90;;;;;;4975841;28;19929;-84
2023/01/06 10:52:38;;;;;;;;;;;9.00;99.90;;;;;;4974151;28;19922;-85
2023/01/06 10:55:04;;;;;;;;;;;9.20;99.90;;;;;;4953230;28;20435;-85
2023/01/06 10:57:33;;;;;;;;;;;9.00;99.90;;;;;;4938259;28;19929;-85
2023/01/06 11:00:13;;;;;;;;;;;9.20;99.90;;;;;;4980247;28;19921;-84
2023/01/06 11:03:02;;;;;;;;;;;9.10;99.90;;;;;;4954298;28;19929;-86
2023/01/06 11:05:29;;;;;;;;;;;9.20;99.90;;;;;;4966401;28;19924;-85
2023/01/06 11:08:11;;;;;;;;;;;9.20;99.90;;;;;;4953545;28;19918;-86
2023/01/06 11:10:39;;;;;;;;;;;9.20;99.90;;;;;;4975110;28;19928;-85
2023/01/06 11:13:06;;;;;;;;;;;9.30;99.90;;;;;;4956052;28;19945;-85
2023/01/06 11:15:39;;;;;;;;;;;9.30;99.90;;;;;;4961332;28;20408;-85
2023/01/06 11:18:05;;;;;;;;;;;9.30;99.90;;;;;;4958122;28;20344;-85
2023/01/06 11:20:32;;;;;;;;;;;9.40;99.90;;;;;;4970468;28;20009;-85
2023/01/06 11:23:19;;;;;;;;;;;10.20;99.90;;;;;;4970129;28;19968;-86
2023/01/06 11:25:58;;;;;;;;;;;9.50;99.90;;;;;;4954264;28;19984;-85
2023/01/06 11:28:23;;;;;;;;;;;9.70;99.90;;;;;;4959499;28;19925;-85
2023/01/06 11:30:51;;;;;;;;;;;9.80;99.90;;;;;;4971435;28;19940;-85
2023/01/06 11:33:18;;;;;;;;;;;9.90;99.90;;;;;;4956065;28;19957;-85
2023/01/06 11:35:43;;;;;;;;;;;10.10;99.90;;;;;;4953617;28;19996;-84
2023/01/06 11:38:12;;;;;;;;;;;10.10;99.90;;;;;;4963687;28;20361;-85
2023/01/06 11:40:38;;;;;;;;;;;10.60;99.90;;;;;;4972697;28;20399;-85
2023/01/06 11:43:09;;;;;;;;;;;10.10;99.90;;;;;;4971319;28;19967;-86
2023/01/06 11:45:39;;;;;;;;;;;10.00;99.90;;;;;;4976531;28;19930;-85
2023/01/06 11:48:31;;;;;;;;;;;10.00;99.90;;;;;;4953264;28;19918;-85
2023/01/06 11:51:01;;;;;;;;;;;9.90;99.90;;;;;;4974124;28;19992;-85
2023/01/06 11:53:28;;;;;;;;;;;9.90;99.90;;;;;;4944397;28;19922;-85
2023/01/06 11:55:55;;;;;;;;;;;10.10;99.90;;;;;;4954814;28;20020;-85
2023/01/06 11:58:26;;;;;;;;;;;10.10;99.90;;;;;;4958842;28;19921;-85
2023/01/06 12:01:05;;;;;;;;;;;10.10;99.90;;;;;;4976601;28;20300;-85
2023/01/06 12:03:34;;;;;;;;;;;10.20;99.90;;;;;;4972562;28;20391;-87
2023/01/06 12:05:59;;;;;;;;;;;10.20;99.90;;;;;;4957270;28;19972;-87
2023/01/06 12:08:35;;;;;;;;;;;10.20;99.90;;;;;;4975265;28;19917;-87
2023/01/06 12:11:05;;;;;;;;;;;10.20;99.90;;;;;;4974987;28;19941;-88
2023/01/06 12:13:32;;;;;;;;;;;10.30;99.90;;;;;;4979794;28;19917;-83
2023/01/06 12:16:01;;;;;;;;;;;10.20;99.90;;;;;;4982758;28;19929;-84
2023/01/06 12:18:29;;;;;;;;;;;10.20;99.90;;;;;;4957706;28;19929;-84
2023/01/06 12:20:55;;;;;;;;;;;10.20;99.90;;;;;;4956701;28;19918;-88
2023/01/06 12:23:23;;;;;;;;;;;10.50;99.90;;;;;;4967086;28;19922;-86
2023/01/06 12:25:49;;;;;;;;;;;10.20;99.90;;;;;;4979653;28;20395;-86
2023/01/06 12:28:27;;;;;;;;;;;10.10;99.90;;;;;;4965618;28;19917;-86
2023/01/06 12:31:13;;;;;;;;;;;10.10;99.90;;;;;;4959658;28;20000;-86
2023/01/06 12:33:49;;;;;;;;;;;10.10;99.90;;;;;;4959197;28;19984;-85
2023/01/06 12:36:26;;;;;;;;;;;9.90;99.90;;;;;;4958355;28;19969;-85
2023/01/06 12:39:01;;;;;;;;;;;9.90;99.90;;;;;;4941630;28;19929;-87
2023/01/06 12:41:33;;;;;;;;;;;9.90;99.90;;;;;;4958148;28;19922;-86
2023/01/06 12:44:10;;;;;;;;;;;9.80;99.90;;;;;;4975659;28;19966;-86
2023/01/06 12:46:45;;;;;;;;;;;9.70;99.90;;;;;;4975270;28;20017;-86
2023/01/06 12:49:29;;;;;;;;;;;9.70;99.90;;;;;;4978673;28;19964;-85
2023/01/06 12:51:58;;;;;;;;;;;9.70;99.90;;;;;;4965442;28;20155;-85
2023/01/06 12:54:32;;;;;;;;;;;9.60;99.90;;;;;;4972703;28;19961;-86
2023/01/06 12:57:03;;;;;;;;;;;9.60;99.90;;;;;;4958588;28;19918;-85
2023/01/06 12:59:29;;;;;;;;;;;9.60;99.90;;;;;;4972980;28;20080;-85
2023/01/06 13:02:09;;;;;;;;;;;9.60;99.90;;;;;;4979813;28;20373;-85
2023/01/06 13:04:48;;;;;;;;;;;9.60;99.90;;;;;;4961999;28;19926;-84
2023/01/06 13:07:19;;;;;;;;;;;9.70;99.90;;;;;;4973265;28;19922;-87
2023/01/06 13:09:45;;;;;;;;;;;9.70;99.90;;;;;;4969735;28;21729;-85
2023/01/06 13:12:25;;;;;;;;;;;9.70;99.90;;;;;;4980423;28;19917;-85
2023/01/06 13:14:51;;;;;;;;;;;9.70;99.90;;;;;;4975603;28;19922;-85
2023/01/06 13:17:42;;;;;;;;;;;9.70;99.90;;;;;;4973043;28;19932;-85
2023/01/06 13:20:21;;;;;;;;;;;9.60;99.90;;;;;;4972353;28;20068;-85
2023/01/06 13:22:46;;;;;;;;;;;9.60;99.90;;;;;;4963031;28;20357;-84
2023/01/06 13:25:30;;;;;;;;;;;9.50;99.90;;;;;;4966097;28;19929;-84
2023/01/06 13:28:15;;;;;;;;;;;9.50;99.90;;;;;;4961256;28;19941;-86
2023/01/06 13:30:41;;;;;;;;;;;9.40;99.90;;;;;;4971163;28;20006;-85
2023/01/06 13:33:20;;;;;;;;;;;9.40;99.90;;;;;;4979546;28;19922;-84
2023/01/06 13:36:12;;;;;;;;;;;9.40;99.90;;;;;;4965380;28;19921;-84
2023/01/06 13:38:47;;;;;;;;;;;9.30;99.90;;;;;;4937908;28;19917;-85
2023/01/06 13:41:18;;;;;;;;;;;9.30;99.90;;;;;;4964865;28;19922;-84
2023/01/06 13:43:45;;;;;;;;;;;9.50;99.90;;;;;;4969862;28;19953;-84
2023/01/06 13:46:12;;;;;;;;;;;9.30;99.90;;;;;;4952634;28;20415;-84
2023/01/06 13:48:40;;;;;;;;;;;9.80;99.90;;;;;;4966320;28;20069;-84
2023/01/06 13:51:08;;;;;;;;;;;9.50;99.90;;;;;;4964557;28;19922;-85
2023/01/06 13:53:38;;;;;;;;;;;9.30;99.90;;;;;;4967806;28;19926;-85
2023/01/06 13:56:13;;;;;;;;;;;9.30;99.90;;;;;;4981500;28;19932;-84
2023/01/06 13:58:39;;;;;;;;;;;9.30;99.90;;;;;;4963139;28;19921;-84
2023/01/06 14:01:12;;;;;;;;;;;9.30;99.90;;;;;;4965088;28;19918;-85
2023/01/06 14:03:38;;;;;;;;;;;9.20;99.90;;;;;;4966397;28;19941;-85
2023/01/06 14:06:08;;;;;;;;;;;9.60;99.90;;;;;;4983443;28;19921;-84
2023/01/06 14:08:36;;;;;;;;;;;9.20;99.90;;;;;;4979979;28;19925;-85
2023/01/06 14:11:18;;;;;;;;;;;9.20;99.90;;;;;;4969020;28;19977;-85
2023/01/06 14:13:48;;;;;;;;;;;9.20;99.90;;;;;;4982961;28;19928;-84
2023/01/06 14:16:13;;;;;;;;;;;9.20;99.90;;;;;;4984777;28;19932;-85
2023/01/06 14:18:44;;;;;;;;;;;9.40;99.90;;;;;;4982991;28;20367;-83
2023/01/06 14:21:09;;;;;;;;;;;9.20;99.90;;;;;;4979085;28;19921;-86
2023/01/06 14:23:35;;;;;;;;;;;9.20;99.90;;;;;;4959890;28;20281;-84
2023/01/06 14:26:01;;;;;;;;;;;9.30;99.90;;;;;;4976587;28;19924;-85
2023/01/06 14:28:28;;;;;;;;;;;9.10;99.90;;;;;;4980886;28;19921;-84
2023/01/06 14:31:12;;;;;;;;;;;9.10;99.90;;;;;;4961577;28;19922;-84
2023/01/06 14:33:39;;;;;;;;;;;9.10;99.90;;;;;;4973561;28;19922;-85
2023/01/06 14:36:14;;;;;;;;;;;9.10;99.90;;;;;;4963603;28;19921;-84
2023/01/06 14:38:42;;;;;;;;;;;9.10;99.90;;;;;;4952535;28;19925;-84